createdAt,value
2023-05-01T00:00:26.922Z,5.97
2023-05-01T00:02:54.708Z,10.55
2023-05-01T00:05:21.363Z,11.30
2023-05-01T00:07:48.014Z,8.05
2023-05-01T00:10:14.684Z,8.52
2023-05-01T00:12:41.298Z,5.70
2023-05-01T00:15:08.538Z,11.32
2023-05-01T00:17:35.070Z,7.93
2023-05-01T00:20:05.134Z,5.53
2023-05-01T00:22:31.665Z,9.65
2023-05-01T00:24:58.262Z,7.50
2023-05-01T00:27:24.857Z,7.57
2023-05-01T00:29:51.447Z,7.15
2023-05-01T00:32:18.471Z,6.20
2023-05-01T00:34:47.723Z,6.40
2023-05-01T00:37:14.766Z,6.18
2023-05-01T00:39:41.512Z,8.05
2023-05-01T00:42:08.176Z,5.70
2023-05-01T00:44:34.841Z,30.52
2023-05-01T00:47:02.309Z,7.22
2023-05-01T00:49:28.920Z,6.75
2023-05-01T00:51:55.569Z,23.52
2023-05-01T00:54:23.067Z,7.68
2023-05-01T00:56:49.904Z,14.23
2023-05-01T00:59:16.722Z,8.50
2023-05-01T01:01:43.695Z,24.52
2023-05-01T01:04:10.717Z,7.82
2023-05-01T01:06:45.864Z,31.23
2023-05-01T01:09:38.945Z,9.70
2023-05-01T01:12:25.221Z,9.15
2023-05-01T01:15:23.019Z,8.77
2023-05-01T01:18:07.762Z,9.93
2023-05-01T01:20:38.155Z,16.60
2023-05-01T01:23:11.885Z,9.75
2023-05-01T01:26:08.812Z,8.35
2023-05-01T01:28:57.623Z,8.98
2023-05-01T01:31:42.381Z,11.52
2023-05-01T01:34:14.937Z,16.48
2023-05-01T01:36:48.681Z,8.13
2023-05-01T01:39:47.831Z,26.30
2023-05-01T01:42:19.582Z,25.95
2023-05-01T01:44:55.515Z,8.15
2023-05-01T01:47:28.235Z,17.35
2023-05-01T01:49:55.779Z,9.32
2023-05-01T01:52:23.394Z,10.43
2023-05-01T01:54:58.714Z,8.20
2023-05-01T01:57:26.847Z,24.98
2023-05-01T01:59:54.717Z,9.30
2023-05-01T02:02:22.899Z,34.80
2023-05-01T02:04:51.711Z,8.45
2023-05-01T02:07:19.477Z,10.68
2023-05-01T02:09:47.060Z,8.73
2023-05-01T02:12:15.201Z,9.95
2023-05-01T02:14:42.357Z,10.93
2023-05-01T02:17:10.248Z,8.95
2023-05-01T02:19:40.263Z,16.02
2023-05-01T02:22:07.336Z,8.18
2023-05-01T02:24:35.094Z,34.33
2023-05-01T02:27:06.548Z,8.45
2023-05-01T02:29:34.114Z,17.42
2023-05-01T02:32:01.223Z,9.10
2023-05-01T02:38:18.755Z,7.63
2023-05-01T02:40:52.575Z,30.63
2023-05-01T02:43:21.179Z,15.38
2023-05-01T02:45:48.554Z,7.70
2023-05-01T02:48:18.897Z,16.95
2023-05-01T02:50:46.498Z,8.07
2023-05-01T02:53:13.539Z,15.90
2023-05-01T02:55:48.049Z,8.52
2023-05-01T02:58:18.035Z,15.85
2023-05-01T03:00:45.370Z,8.95
2023-05-01T03:03:12.281Z,15.55
2023-05-01T03:05:39.491Z,7.88
2023-05-01T03:08:06.590Z,10.98
2023-05-01T03:10:33.879Z,7.63
2023-05-01T03:13:00.876Z,8.68
2023-05-01T03:15:27.754Z,11.05
2023-05-01T03:17:54.275Z,7.90
2023-05-01T03:20:20.812Z,53.97
2023-05-01T03:22:47.329Z,8.43
2023-05-01T03:25:14.107Z,39.28
2023-05-01T03:27:40.943Z,8.02
2023-05-01T03:30:10.125Z,17.88
2023-05-01T03:32:40.181Z,10.55
2023-05-01T03:35:12.394Z,17.70
2023-05-01T03:37:39.076Z,9.00
2023-05-01T03:40:06.332Z,13.85
2023-05-01T03:42:51.401Z,16.65
2023-05-01T03:45:23.596Z,7.85
2023-05-01T03:47:50.420Z,27.48
2023-05-01T03:50:17.719Z,16.23
2023-05-01T03:52:46.766Z,12.52
2023-05-01T03:55:13.366Z,16.52
2023-05-01T03:57:41.060Z,10.15
2023-05-01T04:00:09.582Z,18.45
2023-05-01T04:02:42.269Z,12.45
2023-05-01T04:05:12.297Z,16.38
2023-05-01T04:07:42.082Z,9.80
2023-05-01T04:10:09.884Z,14.32
2023-05-01T04:12:41.037Z,11.68
2023-05-01T04:15:08.484Z,14.77
2023-05-01T04:17:36.135Z,7.93
2023-05-01T04:20:05.519Z,12.07
2023-05-01T04:22:34.252Z,7.50
2023-05-01T04:25:01.603Z,10.82
2023-05-01T04:27:29.577Z,7.38
2023-05-01T04:29:57.496Z,6.90
2023-05-01T04:32:24.448Z,10.38
2023-05-01T04:34:51.032Z,6.43
2023-05-01T04:37:18.651Z,11.02
2023-05-01T04:39:45.570Z,6.47
2023-05-01T04:42:12.207Z,12.10
2023-05-01T04:44:39.476Z,6.35
2023-05-01T04:47:06.325Z,8.18
2023-05-01T04:49:33.300Z,6.07
2023-05-01T04:52:00.002Z,5.85
2023-05-01T04:54:34.468Z,10.77
2023-05-01T04:57:01.276Z,5.85
2023-05-01T04:59:28.050Z,12.30
2023-05-01T05:01:55.613Z,6.78
2023-05-01T05:04:22.554Z,6.60
2023-05-01T05:06:50.502Z,8.93
2023-05-01T05:09:30.838Z,12.60
2023-05-01T05:11:57.713Z,6.43
2023-05-01T05:14:25.341Z,10.55
2023-05-01T05:16:52.255Z,6.68
2023-05-01T05:19:19.200Z,11.40
2023-05-01T05:21:45.823Z,6.40
2023-05-01T05:24:12.492Z,12.27
2023-05-01T05:26:39.233Z,5.28
2023-05-01T05:29:07.291Z,7.28
2023-05-01T05:31:33.962Z,5.53
2023-05-01T05:34:01.023Z,6.68
2023-05-01T05:36:30.899Z,9.38
2023-05-01T05:38:59.508Z,5.80
2023-05-01T05:41:27.195Z,11.05
2023-05-01T05:43:58.629Z,5.78
2023-05-01T05:46:25.406Z,14.20
2023-05-01T05:48:52.449Z,8.70
2023-05-01T05:51:19.516Z,6.53
2023-05-01T05:53:46.572Z,6.43
2023-05-01T05:56:13.195Z,23.17
2023-05-01T05:58:39.741Z,5.50
2023-05-01T06:01:09.061Z,23.75
2023-05-01T06:03:37.217Z,4.70
2023-05-01T06:06:04.389Z,18.52
2023-05-01T06:08:31.224Z,4.47
2023-05-01T06:10:58.901Z,17.83
2023-05-01T06:13:27.068Z,4.43
2023-05-01T06:15:53.731Z,5.40
2023-05-01T06:18:21.101Z,4.85
2023-05-01T06:20:47.871Z,4.82
2023-05-01T06:23:15.521Z,7.15
2023-05-01T06:26:14.360Z,6.85
2023-05-01T06:28:41.062Z,4.85
2023-05-01T06:31:08.161Z,9.20
2023-05-01T06:33:39.932Z,4.78
2023-05-01T06:36:20.996Z,4.32
2023-05-01T06:38:49.202Z,3.83
2023-05-01T06:41:16.187Z,10.60
2023-05-01T06:43:42.879Z,4.80
2023-05-01T06:46:09.559Z,7.15
2023-05-01T06:48:36.115Z,4.28
2023-05-01T06:51:02.805Z,11.32
2023-05-01T06:53:29.443Z,3.30
2023-05-01T06:55:56.196Z,3.70
2023-05-01T06:58:24.310Z,4.93
2023-05-01T07:00:54.044Z,4.00
2023-05-01T07:03:21.181Z,4.78
2023-05-01T07:05:47.968Z,5.78
2023-05-01T07:08:14.563Z,4.10
2023-05-01T07:10:42.300Z,4.82
2023-05-01T07:13:09.472Z,4.88
2023-05-01T07:15:36.202Z,6.85
2023-05-01T07:18:05.859Z,4.60
2023-05-01T07:20:32.788Z,10.25
2023-05-01T07:22:59.435Z,4.85
2023-05-01T07:25:26.143Z,5.80
2023-05-01T07:27:53.120Z,4.70
2023-05-01T07:30:20.409Z,7.82
2023-05-01T07:32:47.134Z,5.38
2023-05-01T07:35:13.855Z,5.63
2023-05-01T07:37:40.370Z,6.00
2023-05-01T07:40:07.867Z,6.00
2023-05-01T07:42:34.497Z,7.18
2023-05-01T07:45:03.317Z,4.95
2023-05-01T07:47:30.113Z,9.15
2023-05-01T07:49:57.433Z,4.40
2023-05-01T07:52:24.281Z,13.85
2023-05-01T07:54:51.295Z,4.35
2023-05-01T07:57:18.156Z,6.70
2023-05-01T07:59:44.801Z,3.95
2023-05-01T08:02:11.772Z,4.28
2023-05-01T08:04:38.361Z,4.03
2023-05-01T08:07:05.046Z,4.00
2023-05-01T08:09:31.911Z,5.10
2023-05-01T08:11:58.453Z,3.90
2023-05-01T08:14:25.297Z,12.48
2023-05-01T08:16:55.328Z,5.57
2023-05-01T08:19:22.224Z,11.38
2023-05-01T08:21:48.966Z,6.75
2023-05-01T08:24:15.705Z,12.20
2023-05-01T08:26:42.282Z,5.30
2023-05-01T08:29:09.881Z,7.90
2023-05-01T08:31:37.984Z,8.35
2023-05-01T08:34:08.005Z,5.22
2023-05-01T08:36:34.657Z,7.07
2023-05-01T08:39:01.438Z,5.30
2023-05-01T08:41:29.048Z,10.65
2023-05-01T08:43:57.023Z,4.47
2023-05-01T08:46:44.546Z,5.70
2023-05-01T08:49:13.304Z,4.50
2023-05-01T08:51:40.065Z,8.52
2023-05-01T08:54:08.362Z,5.93
2023-05-01T08:56:37.007Z,8.60
2023-05-01T08:59:05.469Z,4.28
2023-05-01T09:01:35.799Z,26.77
2023-05-01T09:04:03.978Z,4.60
2023-05-01T09:06:32.431Z,4.40
2023-05-01T09:08:59.699Z,3.75
2023-05-01T09:11:26.427Z,4.38
2023-05-01T09:13:53.291Z,4.63
2023-05-01T09:16:20.705Z,3.47
2023-05-01T09:18:47.450Z,5.60
2023-05-01T09:21:13.974Z,3.85
2023-05-01T09:23:40.998Z,8.98
2023-05-01T09:26:08.125Z,3.22
2023-05-01T09:28:45.393Z,4.80
2023-05-01T09:31:32.662Z,3.70
2023-05-01T09:34:00.949Z,3.63
2023-05-01T09:36:31.180Z,5.97
2023-05-01T09:39:00.025Z,3.50
2023-05-01T09:41:27.628Z,3.65
2023-05-01T09:43:56.127Z,3.60
2023-05-01T09:46:26.409Z,3.28
2023-05-01T09:48:58.556Z,4.23
2023-05-01T09:51:30.129Z,4.07
2023-05-01T09:53:58.572Z,3.65
2023-05-01T09:56:29.444Z,3.83
2023-05-01T09:58:57.648Z,3.58
2023-05-01T10:01:38.712Z,3.88
2023-05-01T10:04:05.817Z,3.50
2023-05-01T10:06:32.458Z,4.38
2023-05-01T10:08:59.066Z,3.05
2023-05-01T10:11:26.980Z,4.15
2023-05-01T10:14:07.773Z,4.13
2023-05-01T10:16:35.809Z,3.42
2023-05-01T10:19:04.443Z,7.90
2023-05-01T10:21:35.342Z,3.90
2023-05-01T10:24:06.092Z,6.78
2023-05-01T10:26:36.785Z,4.25
2023-05-01T10:29:04.165Z,5.95
2023-05-01T10:31:32.960Z,3.28
2023-05-01T10:34:03.104Z,13.50
2023-05-01T10:36:38.099Z,3.60
2023-05-01T10:39:05.054Z,5.32
2023-05-01T10:42:05.754Z,2.90
2023-05-01T10:44:34.608Z,3.33
2023-05-01T10:47:31.638Z,7.63
2023-05-01T10:50:08.801Z,3.95
2023-05-01T10:53:12.474Z,3.10
2023-05-01T10:55:43.609Z,3.28
2023-05-01T10:58:14.313Z,3.40
2023-05-01T11:00:41.290Z,3.35
2023-05-01T11:03:22.936Z,4.20
2023-05-01T11:06:04.750Z,3.30
2023-05-01T11:08:32.701Z,3.47
2023-05-01T11:11:24.181Z,3.60
2023-05-01T11:14:08.219Z,3.03
2023-05-01T11:16:37.950Z,3.20
2023-05-01T11:19:33.064Z,4.07
2023-05-01T11:22:00.518Z,3.83
2023-05-01T11:24:33.130Z,3.63
2023-05-01T11:27:02.718Z,6.18
2023-05-01T11:29:35.147Z,3.97
2023-05-01T11:32:01.948Z,5.88
2023-05-01T11:34:35.200Z,5.50
2023-05-01T11:37:01.970Z,4.15
2023-05-01T11:39:28.754Z,4.75
2023-05-01T11:42:11.035Z,3.70
2023-05-01T11:44:37.737Z,3.47
2023-05-01T11:47:07.396Z,4.10
2023-05-01T11:49:34.470Z,4.15
2023-05-01T11:52:01.244Z,3.85
2023-05-01T11:54:28.136Z,3.90
2023-05-01T11:57:00.049Z,3.72
2023-05-01T11:59:27.447Z,3.35
2023-05-01T12:01:54.546Z,6.05
2023-05-01T12:04:32.335Z,3.17
2023-05-01T12:06:59.456Z,2.63
2023-05-01T12:09:27.127Z,3.13
2023-05-01T12:11:54.353Z,3.20
2023-05-01T12:14:22.040Z,3.10
2023-05-01T12:16:49.393Z,3.15
2023-05-01T12:19:17.297Z,2.45
2023-05-01T12:21:43.873Z,4.25
2023-05-01T12:24:11.754Z,3.40
2023-05-01T12:26:39.076Z,3.58
2023-05-01T12:29:06.711Z,2.38
2023-05-01T12:31:33.989Z,3.00
2023-05-01T12:34:02.903Z,2.78
2023-05-01T12:36:33.235Z,2.33
2023-05-01T12:39:05.383Z,3.65
2023-05-01T12:41:42.721Z,2.22
2023-05-01T12:44:25.959Z,5.53
2023-05-01T12:46:59.290Z,3.00
2023-05-01T12:49:26.054Z,2.90
2023-05-01T12:51:54.864Z,3.30
2023-05-01T12:54:34.585Z,4.88
2023-05-01T12:57:16.349Z,2.75
2023-05-01T12:59:44.866Z,2.20
2023-05-01T13:02:16.028Z,2.90
2023-05-01T13:07:17.571Z,3.88
2023-05-01T13:09:53.736Z,2.80
2023-05-01T13:12:20.549Z,16.83
2023-05-01T13:14:47.620Z,2.95
2023-05-01T13:17:22.801Z,8.43
2023-05-01T13:20:00.503Z,5.05
2023-05-01T13:22:38.722Z,4.03
2023-05-01T13:25:17.154Z,12.77
2023-05-01T13:27:50.851Z,9.35
2023-05-01T13:30:21.722Z,11.75
2023-05-01T13:32:49.599Z,12.30
2023-05-01T13:35:26.792Z,11.27
2023-05-01T13:37:54.080Z,8.68
2023-05-01T13:40:21.192Z,6.65
2023-05-01T13:42:52.720Z,5.35
2023-05-01T13:45:21.114Z,3.65
2023-05-01T13:47:49.459Z,2.45
2023-05-01T13:50:17.853Z,3.75
2023-05-01T13:52:48.594Z,4.05
2023-05-01T13:55:17.435Z,2.95
2023-05-01T13:57:44.346Z,1.67
2023-05-01T14:00:17.469Z,1.70
2023-05-01T14:02:46.058Z,1.42
2023-05-01T14:05:12.663Z,1.25
2023-05-01T14:07:50.795Z,1.40
2023-05-01T14:10:17.628Z,3.17
2023-05-01T14:12:45.636Z,2.17
2023-05-01T14:15:13.157Z,4.80
2023-05-01T14:17:40.306Z,3.10
2023-05-01T14:20:08.559Z,3.30
2023-05-01T14:22:43.890Z,6.00
2023-05-01T14:25:33.909Z,10.43
2023-05-01T14:28:02.369Z,12.32
2023-05-01T14:30:33.545Z,3.10
2023-05-01T14:33:04.102Z,7.90
2023-05-01T14:35:30.993Z,4.05
2023-05-01T14:38:08.804Z,6.43
2023-05-01T14:40:35.787Z,4.80
2023-05-01T14:43:02.710Z,3.65
2023-05-01T14:45:29.922Z,14.13
2023-05-01T14:47:56.612Z,4.32
2023-05-01T14:50:23.977Z,6.78
2023-05-01T14:52:58.704Z,3.28
2023-05-01T14:55:28.234Z,3.15
2023-05-01T14:57:58.133Z,8.13
2023-05-01T15:00:25.033Z,4.03
2023-05-01T15:02:52.164Z,6.63
2023-05-01T15:05:18.948Z,5.80
2023-05-01T15:07:45.922Z,5.07
2023-05-01T15:10:12.872Z,8.10
2023-05-01T15:12:39.531Z,3.78
2023-05-01T15:15:07.228Z,7.43
2023-05-01T15:17:33.936Z,3.67
2023-05-01T15:20:00.893Z,8.98
2023-05-01T15:22:28.191Z,4.50
2023-05-01T15:24:54.806Z,21.67
2023-05-01T15:27:21.630Z,5.30
2023-05-01T15:29:48.688Z,6.93
2023-05-01T15:32:15.645Z,3.75
2023-05-01T15:34:42.900Z,5.50
2023-05-01T15:37:09.730Z,5.95
2023-05-01T15:39:37.994Z,3.85
2023-05-01T15:42:04.586Z,5.20
2023-05-01T15:44:31.772Z,7.68
2023-05-01T15:46:58.380Z,5.70
2023-05-01T15:49:25.070Z,28.50
2023-05-01T15:51:51.683Z,4.25
2023-05-01T15:54:18.183Z,4.70
2023-05-01T15:56:45.374Z,34.70
2023-05-01T15:59:13.351Z,5.93
2023-05-01T16:01:39.976Z,13.70
2023-05-01T16:04:06.732Z,6.15
2023-05-01T16:06:34.389Z,10.57
2023-05-01T16:09:01.022Z,5.93
2023-05-01T16:11:31.439Z,6.85
2023-05-01T16:13:58.064Z,4.20
2023-05-01T16:16:26.309Z,5.57
2023-05-01T16:18:57.712Z,5.20
2023-05-01T16:23:52.914Z,16.23
2023-05-01T16:26:27.502Z,6.93
2023-05-01T16:29:02.899Z,7.03
2023-05-01T16:31:35.753Z,8.85
2023-05-01T16:34:02.484Z,6.93
2023-05-01T16:36:28.993Z,8.75
2023-05-01T16:38:55.859Z,7.22
2023-05-01T16:41:24.946Z,7.90
2023-05-01T16:43:51.695Z,5.88
2023-05-01T16:46:18.268Z,9.07
2023-05-01T16:48:44.802Z,6.15
2023-05-01T16:51:11.911Z,23.05
2023-05-01T16:53:38.484Z,5.57
2023-05-01T16:56:05.302Z,9.25
2023-05-01T16:58:31.850Z,5.78
2023-05-01T17:00:59.983Z,6.55
2023-05-01T17:03:27.230Z,5.53
2023-05-01T17:05:53.844Z,5.55
2023-05-01T17:08:20.381Z,6.95
2023-05-01T17:10:46.944Z,5.50
2023-05-01T17:13:15.433Z,15.98
2023-05-01T17:15:42.099Z,4.68
2023-05-01T17:18:08.848Z,9.02
2023-05-01T17:20:35.400Z,5.30
2023-05-01T17:23:02.421Z,12.73
2023-05-01T17:25:29.114Z,6.45
2023-05-01T17:27:55.713Z,7.50
2023-05-01T17:30:22.454Z,5.75
2023-05-01T17:32:49.128Z,5.43
2023-05-01T17:35:16.563Z,11.45
2023-05-01T17:37:43.093Z,5.10
2023-05-01T17:40:12.796Z,13.13
2023-05-01T17:42:39.565Z,5.10
2023-05-01T17:45:07.530Z,25.45
2023-05-01T17:47:34.572Z,6.20
2023-05-01T17:50:04.703Z,7.93
2023-05-01T17:52:31.808Z,5.25
2023-05-01T17:54:58.879Z,6.53
2023-05-01T17:57:25.617Z,6.18
2023-05-01T17:59:52.765Z,7.00
2023-05-01T18:02:20.302Z,8.48
2023-05-01T18:04:50.120Z,6.45
2023-05-01T18:07:17.064Z,9.40
2023-05-01T18:09:43.608Z,6.18
2023-05-01T18:12:10.313Z,10.07
2023-05-01T18:14:37.176Z,6.95
2023-05-01T18:17:03.942Z,9.88
2023-05-01T18:19:30.677Z,7.57
2023-05-01T18:21:57.625Z,12.73
2023-05-01T18:24:24.340Z,7.57
2023-05-01T18:26:50.945Z,7.85
2023-05-01T18:29:17.563Z,19.00
2023-05-01T18:31:44.226Z,9.68
2023-05-01T18:34:12.129Z,15.20
2023-05-01T18:36:38.683Z,9.43
2023-05-01T18:39:05.415Z,15.70
2023-05-01T18:41:32.033Z,10.38
2023-05-01T18:44:01.194Z,13.85
2023-05-01T18:46:27.784Z,10.93
2023-05-01T18:48:54.453Z,11.75
2023-05-01T18:51:21.514Z,19.05
2023-05-01T18:53:48.176Z,10.82
2023-05-01T18:56:14.811Z,28.27
2023-05-01T18:58:41.360Z,12.35
2023-05-01T19:01:07.979Z,16.40
2023-05-01T19:03:34.638Z,52.53
2023-05-01T19:06:01.400Z,13.07
2023-05-01T19:08:27.956Z,13.45
2023-05-01T19:10:54.498Z,21.33
2023-05-01T19:13:21.222Z,15.38
2023-05-01T19:15:48.061Z,31.55
2023-05-01T19:18:16.099Z,15.38
2023-05-01T19:20:43.135Z,22.02
2023-05-01T19:23:09.860Z,15.35
2023-05-01T19:25:36.406Z,15.27
2023-05-01T19:28:03.675Z,19.65
2023-05-01T19:30:30.823Z,15.65
2023-05-01T19:33:00.392Z,23.58
2023-05-01T19:35:26.943Z,17.35
2023-05-01T19:37:57.333Z,26.58
2023-05-01T19:40:23.913Z,15.90
2023-05-01T19:42:50.833Z,40.97
2023-05-01T19:45:18.138Z,26.45
2023-05-01T19:47:45.779Z,27.20
2023-05-01T19:50:12.627Z,23.25
2023-05-01T19:52:39.509Z,16.48
2023-05-01T19:55:06.879Z,11.98
2023-05-01T19:57:33.773Z,13.05
2023-05-01T20:00:00.790Z,14.93
2023-05-01T20:02:28.471Z,15.50
2023-05-01T20:04:59.081Z,15.27
2023-05-01T20:07:31.603Z,16.55
2023-05-01T20:09:58.301Z,16.52
2023-05-01T20:12:25.254Z,15.63
2023-05-01T20:14:52.105Z,16.50
2023-05-01T20:17:18.803Z,17.08
2023-05-01T20:19:45.420Z,14.35
2023-05-01T20:22:12.483Z,14.82
2023-05-01T20:24:39.585Z,14.50
2023-05-01T20:27:06.488Z,16.33
2023-05-01T20:29:33.613Z,18.70
2023-05-01T20:32:00.547Z,18.35
2023-05-01T20:34:27.133Z,19.13
2023-05-01T20:36:53.724Z,19.45
2023-05-01T20:39:20.321Z,19.40
2023-05-01T20:41:46.959Z,18.25
2023-05-01T20:44:13.541Z,18.52
2023-05-01T20:46:40.376Z,19.40
2023-05-01T20:49:09.922Z,20.35
2023-05-01T20:51:37.246Z,22.25
2023-05-01T20:54:04.115Z,21.33
2023-05-01T20:56:30.652Z,21.95
2023-05-01T20:58:57.490Z,21.90
2023-05-01T21:01:24.118Z,22.58
2023-05-01T21:03:50.705Z,22.80
2023-05-01T21:06:17.425Z,22.70
2023-05-01T21:08:44.612Z,22.55
2023-05-01T21:11:11.252Z,22.15
2023-05-01T21:13:37.829Z,23.67
2023-05-01T21:16:06.542Z,22.27
2023-05-01T21:18:34.051Z,23.58
2023-05-01T21:21:02.342Z,22.65
2023-05-01T21:23:29.653Z,21.58
2023-05-01T21:25:56.456Z,21.55
2023-05-01T21:28:23.088Z,21.85
2023-05-01T21:30:49.703Z,21.98
2023-05-01T21:33:17.320Z,21.33
2023-05-01T21:35:46.074Z,22.20
2023-05-01T21:38:12.785Z,21.63
2023-05-01T21:40:42.054Z,22.48
2023-05-01T21:43:09.757Z,22.65
2023-05-01T21:45:40.682Z,21.77
2023-05-01T21:48:09.008Z,22.65
2023-05-01T21:50:37.415Z,21.90
2023-05-01T21:53:08.179Z,21.38
2023-05-01T21:55:35.918Z,22.52
2023-05-01T21:58:02.931Z,22.33
2023-05-01T22:00:30.358Z,23.15
2023-05-01T22:02:57.504Z,23.17
2023-05-01T22:05:24.350Z,24.38
2023-05-01T22:07:52.152Z,23.80
2023-05-01T22:10:19.711Z,24.75
2023-05-01T22:12:48.795Z,26.15
2023-05-01T22:15:16.062Z,25.38
2023-05-01T22:17:42.951Z,26.92
2023-05-01T22:20:10.521Z,26.13
2023-05-01T22:22:38.822Z,26.92
2023-05-01T22:25:06.035Z,29.23
2023-05-01T22:27:33.375Z,30.42
2023-05-01T22:30:00.686Z,30.10
2023-05-01T22:32:28.417Z,29.30
2023-05-01T22:34:55.313Z,31.38
2023-05-01T22:37:22.085Z,30.90
2023-05-01T22:39:48.618Z,31.30
2023-05-01T22:42:24.203Z,33.70
2023-05-01T22:44:51.732Z,32.28
2023-05-01T22:47:18.632Z,34.00
2023-05-01T22:49:45.385Z,33.10
2023-05-01T22:52:11.940Z,34.05
2023-05-01T22:54:38.821Z,35.35
2023-05-01T22:57:05.681Z,35.85
2023-05-01T22:59:32.259Z,36.90
2023-05-01T23:02:01.909Z,35.30
2023-05-01T23:04:28.497Z,36.28
2023-05-01T23:06:55.095Z,34.53
2023-05-01T23:09:21.965Z,36.85
2023-05-01T23:11:48.713Z,35.92
2023-05-01T23:14:18.337Z,37.17
2023-05-01T23:16:45.138Z,36.33
2023-05-01T23:19:30.009Z,38.53
2023-05-01T23:22:07.045Z,39.30
2023-05-01T23:24:41.454Z,38.08
2023-05-01T23:27:08.354Z,41.58
2023-05-01T23:29:35.624Z,40.30
2023-05-01T23:32:02.621Z,39.35
2023-05-01T23:34:29.255Z,39.30
2023-05-01T23:36:55.842Z,41.67
2023-05-01T23:39:22.480Z,41.35
2023-05-01T23:41:50.455Z,40.72
2023-05-01T23:44:17.248Z,41.28
2023-05-01T23:46:44.533Z,40.50
2023-05-01T23:49:11.392Z,42.28
2023-05-01T23:51:38.053Z,42.13
2023-05-01T23:54:04.647Z,41.40
2023-05-01T23:56:31.414Z,43.60
2023-05-01T23:58:58.128Z,42.25
